Impacts TAF Board
For situational awareness. Not to be used for flight planning purposes.
IDs:

KLBX - Angleton/Texas Gulf, TX, US

Issued at 0520 UTC 19 Aug 2019
Updated at 0524 UTC 19 Aug 2019
Potential Impact None Slight Moderate High
Time0453Z 19/06Z 19/07Z 19/08Z 19/09Z 19/10Z 19/11Z 19/12Z 19/13Z 19/14Z 19/15Z 19/16Z 19/17Z 19/18Z>>
Type OBS PRVL PRVL PRVL PRVL PRVL PRVL PRVL PRVL PRVL PRVL PRVL PRVL PRVL
VIS 10 >6 >6 >6 >6 >6 >6 >6 >6 >6 >6 >6 >6 >6
CIG -- -- -- -- -- -- -- -- -- -- -- -- -- --
Cover CLR FEW FEW FEW FEW FEW SCT SCT SCT SCT SCT SCT SCT SCT
FltCat VFR VFR VFR VFR VFR VFR VFR VFR VFR VFR VFR VFR VFR VFR
WX -- -- -- -- -- -- VCSH VCSH VCSH VCSH VCSH VCSH VCSH VCSH
WDir 160 160 160 160 160 160 190 190 190 190 190 190 190 190
WSpd 7 7 7 7 7 7 4 4 4 4 4 10 10 10
WGst -- -- -- -- -- -- -- -- -- -- -- -- -- --
Raw TAF
KLBX 190520Z 1906/2006 16007KT P6SM FEW025
  FM191100 19004KT P6SM VCSH SCT025
  FM191600 19010KT P6SM VCSH SCT045
  FM192100 18008KT P6SM SCT050
  FM200100 17004KT P6SM FEW025


Raw METAR
KLBX 190453Z AUTO 16007KT 10SM CLR 28/25 A2994 RMK AO2 SLP137 T02830250
KLBX 190353Z AUTO 16006KT 10SM CLR 27/24 A2993 RMK AO2 SLP135 T02720244
KLBX 190253Z AUTO 16004KT 10SM CLR 28/24 A2993 RMK AO2 SLP134 T02830244 51010

METAR Board
Radar Display
Forecast Discussion
For situational awareness. Not to be used for flight planning purposes.